createdAt,value
2023-05-05T00:02:07.585Z,73.74
2023-05-05T00:05:20.665Z,73.76
2023-05-05T00:08:33.321Z,73.53
2023-05-05T00:11:45.953Z,75.75
2023-05-05T00:14:58.299Z,76.12
2023-05-05T00:18:11.216Z,77.22
2023-05-05T00:21:23.546Z,78.29
2023-05-05T00:24:36.207Z,79.20
2023-05-05T00:27:48.537Z,79.47
2023-05-05T00:31:01.704Z,80.39
2023-05-05T00:34:14.169Z,80.00
2023-05-05T00:37:27.158Z,79.72
2023-05-05T00:40:39.619Z,79.60
2023-05-05T00:43:52.674Z,79.34
2023-05-05T00:47:05.381Z,80.13
2023-05-05T00:50:23.958Z,81.36
2023-05-05T00:53:36.401Z,81.53
2023-05-05T00:56:50.859Z,82.47
2023-05-05T01:00:03.683Z,82.63
2023-05-05T01:03:17.027Z,82.95
2023-05-05T01:06:35.273Z,82.96
2023-05-05T01:10:18.908Z,83.59
2023-05-05T01:13:43.284Z,83.53
2023-05-05T01:17:00.170Z,83.95
2023-05-05T01:20:23.932Z,84.10
2023-05-05T01:23:58.370Z,84.29
2023-05-05T01:27:35.348Z,84.35
2023-05-05T01:31:23.606Z,84.43
2023-05-05T01:34:57.635Z,84.75
2023-05-05T01:38:38.118Z,84.31
2023-05-05T01:41:51.253Z,85.65
2023-05-05T01:45:04.706Z,85.94
2023-05-05T01:48:17.570Z,85.81
2023-05-05T01:51:30.243Z,86.92
2023-05-05T01:54:43.321Z,86.92
2023-05-05T01:57:56.096Z,87.89
2023-05-05T02:01:08.949Z,87.40
2023-05-05T02:04:22.905Z,87.64
2023-05-05T02:07:35.298Z,88.47
2023-05-05T02:10:47.953Z,88.47
2023-05-05T02:14:00.366Z,89.29
2023-05-05T02:17:13.288Z,88.93
2023-05-05T02:20:25.858Z,90.33
2023-05-05T02:23:39.480Z,89.26
2023-05-05T02:26:52.294Z,90.40
2023-05-05T02:30:07.563Z,90.52
2023-05-05T02:33:20.220Z,91.24
2023-05-05T02:36:34.041Z,91.65
2023-05-05T02:39:51.587Z,91.62
2023-05-05T02:43:06.573Z,91.50
2023-05-05T02:46:19.421Z,91.31
2023-05-05T02:49:32.547Z,92.36
2023-05-05T02:52:45.248Z,92.63
2023-05-05T02:56:22.437Z,92.60
2023-05-05T03:00:02.208Z,91.99
2023-05-05T03:04:03.157Z,93.38
2023-05-05T03:07:25.230Z,93.54
2023-05-05T03:10:48.046Z,93.70
2023-05-05T03:14:13.000Z,94.13
2023-05-05T03:17:26.187Z,94.31
2023-05-05T03:20:41.732Z,94.36
2023-05-05T03:23:54.584Z,93.35
2023-05-05T03:27:07.784Z,93.67
2023-05-05T03:30:20.960Z,93.74
2023-05-05T03:33:33.985Z,93.11
2023-05-05T03:36:46.978Z,93.43
2023-05-05T03:40:00.531Z,93.21
2023-05-05T03:43:13.767Z,93.71
2023-05-05T03:46:26.202Z,93.92
2023-05-05T03:49:39.319Z,94.16
2023-05-05T03:52:51.806Z,94.08
2023-05-05T03:56:04.703Z,93.81
2023-05-05T03:59:17.396Z,93.42
2023-05-05T04:02:30.447Z,92.99
2023-05-05T04:05:43.441Z,92.75
2023-05-05T04:08:55.933Z,92.48
2023-05-05T04:12:08.760Z,92.10
2023-05-05T04:15:21.237Z,92.39
2023-05-05T04:18:33.966Z,90.78
2023-05-05T04:21:46.423Z,90.03
2023-05-05T04:24:59.308Z,89.49
2023-05-05T04:28:11.999Z,89.42
2023-05-05T04:31:24.809Z,88.85
2023-05-05T04:34:37.317Z,87.97
2023-05-05T04:37:50.328Z,87.43
2023-05-05T04:41:08.840Z,86.57
2023-05-05T04:44:22.125Z,85.96
2023-05-05T04:47:41.525Z,85.31
2023-05-05T04:50:54.361Z,85.86
2023-05-05T04:54:07.472Z,84.97
2023-05-05T04:57:20.324Z,84.21
2023-05-05T05:00:32.872Z,83.29
2023-05-05T05:03:46.011Z,82.53
2023-05-05T05:06:59.369Z,82.33
2023-05-05T05:10:12.362Z,80.90
2023-05-05T05:13:24.846Z,80.81
2023-05-05T05:16:37.759Z,79.43
2023-05-05T05:19:51.135Z,79.67
2023-05-05T05:23:04.575Z,78.83
2023-05-05T05:26:17.696Z,79.35
2023-05-05T05:29:30.912Z,78.67
2023-05-05T05:32:43.727Z,79.73
2023-05-05T05:35:56.478Z,78.47
2023-05-05T05:39:09.073Z,77.26
2023-05-05T05:42:21.824Z,77.13
2023-05-05T05:45:34.686Z,76.11
2023-05-05T05:48:47.788Z,73.43
2023-05-05T05:52:00.218Z,72.95
2023-05-05T05:55:13.087Z,70.51
2023-05-05T05:58:26.021Z,69.54
2023-05-05T06:01:40.456Z,67.93
2023-05-05T06:04:53.451Z,67.49
2023-05-05T06:08:06.739Z,66.48
2023-05-05T06:11:20.573Z,66.12
2023-05-05T06:14:33.050Z,65.21
2023-05-05T06:17:45.911Z,63.95
2023-05-05T06:20:58.304Z,63.14
2023-05-05T06:24:12.073Z,62.47
2023-05-05T06:27:24.564Z,60.75
2023-05-05T06:30:37.203Z,60.18
2023-05-05T06:33:49.542Z,60.16
2023-05-05T06:37:02.291Z,60.29
2023-05-05T06:40:14.830Z,59.20
2023-05-05T06:43:28.506Z,59.52
2023-05-05T06:46:44.180Z,60.29
2023-05-05T06:49:57.646Z,60.96
2023-05-05T06:53:10.996Z,61.62
2023-05-05T06:56:24.027Z,60.66
2023-05-05T06:59:36.504Z,58.89
2023-05-05T07:02:49.292Z,59.65
2023-05-05T07:06:01.688Z,58.98
2023-05-05T07:09:16.940Z,59.60
2023-05-05T07:12:30.698Z,58.89
2023-05-05T07:15:46.806Z,58.14
2023-05-05T07:19:00.881Z,58.93
2023-05-05T07:22:13.605Z,59.00
2023-05-05T07:25:26.812Z,58.89
2023-05-05T07:28:39.490Z,58.18
2023-05-05T07:31:51.956Z,57.96
2023-05-05T07:35:05.978Z,58.98
2023-05-05T07:38:18.404Z,60.04
2023-05-05T07:41:31.130Z,59.91
2023-05-05T07:44:43.588Z,58.93
2023-05-05T07:47:56.504Z,59.88
2023-05-05T07:51:09.355Z,59.23
2023-05-05T07:54:22.129Z,59.23
2023-05-05T07:57:34.766Z,58.54
2023-05-05T08:00:47.977Z,58.97
2023-05-05T08:04:00.777Z,58.57
2023-05-05T08:07:13.147Z,57.73
2023-05-05T08:10:25.799Z,59.11
2023-05-05T08:13:39.223Z,59.15
2023-05-05T08:16:51.900Z,58.19
2023-05-05T08:20:04.565Z,58.89
2023-05-05T08:23:17.254Z,57.45
2023-05-05T08:26:29.677Z,57.59
2023-05-05T08:29:42.374Z,58.79
2023-05-05T08:32:55.196Z,57.05
2023-05-05T08:36:08.945Z,58.52
2023-05-05T08:39:21.331Z,58.04
2023-05-05T08:42:38.439Z,58.00
2023-05-05T08:45:54.293Z,58.57
2023-05-05T08:49:07.259Z,59.51
2023-05-05T08:52:24.301Z,57.97
2023-05-05T08:55:41.893Z,57.23
2023-05-05T08:58:54.549Z,57.80
2023-05-05T09:02:07.387Z,58.70
2023-05-05T09:05:19.998Z,59.84
2023-05-05T09:08:33.481Z,59.31
2023-05-05T09:11:45.818Z,58.40
2023-05-05T09:15:05.008Z,58.11
2023-05-05T09:18:17.417Z,57.56
2023-05-05T09:21:30.181Z,56.25
2023-05-05T09:24:54.623Z,55.45
2023-05-05T09:28:14.724Z,55.66
2023-05-05T09:31:27.529Z,56.51
2023-05-05T09:34:40.211Z,55.48
2023-05-05T09:37:52.584Z,54.39
2023-05-05T09:41:06.545Z,54.28
2023-05-05T09:44:32.480Z,53.03
2023-05-05T09:47:48.435Z,52.79
2023-05-05T09:51:00.827Z,53.72
2023-05-05T09:54:29.673Z,52.20
2023-05-05T09:57:42.128Z,53.37
2023-05-05T10:09:09.262Z,52.64
2023-05-05T10:12:23.868Z,51.29
2023-05-05T10:15:36.538Z,49.98
2023-05-05T10:18:50.643Z,49.22
2023-05-05T10:22:03.533Z,49.04
2023-05-05T10:25:16.260Z,47.58
2023-05-05T10:28:42.218Z,46.75
2023-05-05T10:31:54.974Z,46.50
2023-05-05T10:35:11.051Z,45.94
2023-05-05T10:38:24.794Z,45.18
2023-05-05T10:41:39.060Z,45.70
2023-05-05T10:44:53.851Z,45.78
2023-05-05T10:48:07.399Z,45.55
2023-05-05T10:51:47.227Z,46.68
2023-05-05T10:55:16.549Z,48.44
2023-05-05T10:58:55.435Z,47.99
2023-05-05T11:02:21.414Z,46.83
2023-05-05T11:05:34.037Z,45.33
2023-05-05T11:08:46.532Z,44.16
2023-05-05T11:12:06.284Z,46.16
2023-05-05T11:15:27.895Z,43.70
2023-05-05T11:18:43.382Z,44.33
2023-05-05T11:22:02.001Z,43.15
2023-05-05T11:25:37.068Z,45.27
2023-05-05T11:29:00.794Z,44.76
2023-05-05T11:32:16.528Z,46.10
2023-05-05T11:35:58.263Z,44.99
2023-05-05T11:39:41.135Z,46.08
2023-05-05T11:43:04.752Z,46.40
2023-05-05T11:46:17.448Z,45.61
2023-05-05T11:49:34.271Z,43.23
2023-05-05T11:52:47.375Z,43.97
2023-05-05T11:56:09.258Z,41.11
2023-05-05T11:59:23.014Z,41.72
2023-05-05T12:02:36.112Z,40.35
2023-05-05T12:05:48.864Z,38.67
2023-05-05T12:09:01.358Z,38.93
2023-05-05T12:12:14.565Z,38.87
2023-05-05T12:15:31.220Z,39.58
2023-05-05T12:18:43.952Z,39.15
2023-05-05T12:21:56.824Z,39.09
2023-05-05T12:25:09.880Z,39.86
2023-05-05T12:28:22.280Z,39.47
2023-05-05T12:31:38.623Z,38.92
2023-05-05T12:34:54.289Z,38.73
2023-05-05T12:38:07.022Z,39.58
2023-05-05T12:41:20.098Z,36.87
2023-05-05T12:44:38.869Z,37.26
2023-05-05T12:47:51.540Z,36.06
2023-05-05T12:51:20.861Z,35.98
2023-05-05T12:54:33.371Z,34.96
2023-05-05T12:58:07.169Z,36.59
2023-05-05T13:01:19.590Z,37.03
2023-05-05T13:04:32.732Z,33.74
2023-05-05T13:07:52.686Z,34.80
2023-05-05T13:11:05.378Z,32.73
2023-05-05T13:14:17.737Z,31.55
2023-05-05T13:17:31.103Z,31.74
2023-05-05T13:20:44.869Z,32.18
2023-05-05T13:24:08.213Z,31.81
2023-05-05T13:27:24.655Z,33.30
2023-05-05T13:30:37.297Z,31.04
2023-05-05T13:33:49.665Z,31.93
2023-05-05T13:37:02.285Z,32.32
2023-05-05T13:40:14.600Z,30.60
2023-05-05T13:43:27.216Z,31.57
2023-05-05T13:46:40.210Z,30.53
2023-05-05T13:49:52.953Z,30.59
2023-05-05T13:53:05.316Z,31.90
2023-05-05T13:56:19.161Z,31.13
2023-05-05T13:59:31.587Z,30.49
2023-05-05T14:02:44.301Z,30.48
2023-05-05T14:05:57.030Z,30.06
2023-05-05T14:09:09.369Z,29.10
2023-05-05T14:12:23.730Z,30.08
2023-05-05T14:15:36.854Z,30.31
2023-05-05T14:18:51.045Z,28.40
2023-05-05T14:22:03.471Z,28.71
2023-05-05T14:25:16.228Z,27.83
2023-05-05T14:28:28.621Z,27.42
2023-05-05T14:31:41.294Z,27.69
2023-05-05T14:34:55.371Z,29.68
2023-05-05T14:38:08.037Z,30.21
2023-05-05T14:41:20.519Z,29.75
2023-05-05T14:44:33.129Z,30.05
2023-05-05T14:47:45.486Z,30.52
2023-05-05T14:50:58.144Z,29.20
2023-05-05T14:54:24.164Z,27.48
2023-05-05T14:57:40.468Z,30.27
2023-05-05T15:00:52.921Z,30.86
2023-05-05T15:04:05.901Z,32.08
2023-05-05T15:07:18.244Z,31.97
2023-05-05T15:10:30.918Z,31.98
2023-05-05T15:13:43.263Z,32.75
2023-05-05T15:16:55.876Z,33.06
2023-05-05T15:20:08.632Z,31.41
2023-05-05T15:23:21.552Z,32.83
2023-05-05T15:26:33.994Z,31.68
2023-05-05T15:29:46.758Z,33.68
2023-05-05T15:32:59.105Z,32.42
2023-05-05T15:36:12.057Z,32.17
2023-05-05T15:39:24.443Z,31.85
2023-05-05T15:42:37.110Z,30.75
2023-05-05T15:45:49.505Z,29.62
2023-05-05T15:49:02.173Z,30.63
2023-05-05T15:52:14.560Z,31.10
2023-05-05T15:55:27.531Z,30.83
2023-05-05T15:58:43.823Z,30.51
2023-05-05T16:02:06.200Z,30.20
2023-05-05T16:05:26.933Z,30.30
2023-05-05T16:08:42.297Z,30.68
2023-05-05T16:11:55.302Z,30.53
2023-05-05T16:15:08.484Z,31.41
2023-05-05T16:18:21.334Z,30.81
2023-05-05T16:21:33.665Z,30.75
2023-05-05T16:24:46.975Z,31.56
2023-05-05T16:28:00.275Z,33.08
2023-05-05T16:31:13.560Z,32.48
2023-05-05T16:34:26.072Z,32.44
2023-05-05T16:37:38.700Z,32.37
2023-05-05T16:40:51.032Z,32.41
2023-05-05T16:44:03.748Z,32.02
2023-05-05T16:47:16.860Z,32.32
2023-05-05T16:50:29.561Z,31.78
2023-05-05T16:53:41.988Z,31.45
2023-05-05T16:56:55.025Z,32.05
2023-05-05T17:00:07.888Z,32.54
2023-05-05T17:03:20.630Z,32.25
2023-05-05T17:06:33.127Z,33.34
2023-05-05T17:09:45.812Z,33.77
2023-05-05T17:12:58.204Z,33.78
2023-05-05T17:16:10.923Z,33.69
2023-05-05T17:19:23.308Z,34.18
2023-05-05T17:22:36.342Z,34.98
2023-05-05T17:25:48.728Z,35.17
2023-05-05T17:29:01.446Z,35.32
2023-05-05T17:32:13.793Z,36.15
2023-05-05T17:35:26.792Z,36.46
2023-05-05T17:38:39.171Z,37.14
2023-05-05T17:41:51.761Z,37.47
2023-05-05T17:45:04.476Z,38.68
2023-05-05T17:48:17.104Z,40.36
2023-05-05T17:51:29.485Z,41.61
2023-05-05T17:54:46.139Z,43.06
2023-05-05T17:57:59.112Z,46.01
2023-05-05T18:01:20.556Z,48.26
2023-05-05T18:04:33.157Z,48.48
2023-05-05T18:07:45.659Z,48.97
2023-05-05T18:10:58.334Z,50.72
2023-05-05T18:14:13.588Z,51.50
2023-05-05T18:17:26.282Z,49.37
2023-05-05T18:20:38.635Z,50.67
2023-05-05T18:23:51.329Z,52.66
2023-05-05T18:27:05.389Z,54.07
2023-05-05T18:30:18.036Z,54.19
2023-05-05T18:33:30.459Z,55.35
2023-05-05T18:36:43.187Z,56.90
2023-05-05T18:39:55.717Z,57.67
2023-05-05T18:43:08.345Z,58.87
2023-05-05T18:46:20.832Z,59.54
2023-05-05T18:49:33.693Z,59.63
2023-05-05T18:52:46.000Z,58.95
2023-05-05T18:55:59.128Z,59.68
2023-05-05T18:59:11.813Z,58.63
2023-05-05T19:02:24.456Z,59.50
2023-05-05T19:05:36.858Z,59.71
2023-05-05T19:08:49.565Z,59.67
2023-05-05T19:12:02.975Z,60.09
2023-05-05T19:15:15.719Z,60.59
2023-05-05T19:18:28.025Z,61.09
2023-05-05T19:21:40.766Z,62.37
2023-05-05T19:24:53.136Z,63.66
2023-05-05T19:28:06.063Z,65.59
2023-05-05T19:31:18.463Z,66.60
2023-05-05T19:34:31.599Z,67.09
2023-05-05T19:37:44.008Z,66.40
2023-05-05T19:40:56.630Z,66.94
2023-05-05T19:44:09.032Z,67.29
2023-05-05T19:47:22.483Z,68.59
2023-05-05T19:50:34.898Z,71.10
2023-05-05T19:53:47.554Z,70.21
2023-05-05T19:57:00.799Z,70.10
2023-05-05T20:00:13.831Z,70.54
2023-05-05T20:03:26.586Z,71.93
2023-05-05T20:06:38.950Z,73.95
2023-05-05T20:09:51.583Z,74.72
2023-05-05T20:13:04.023Z,74.87
2023-05-05T20:16:16.924Z,76.24
2023-05-05T20:19:29.276Z,75.84
2023-05-05T20:22:41.908Z,76.51
2023-05-05T20:25:54.589Z,77.40
2023-05-05T20:29:07.310Z,77.95
2023-05-05T20:32:20.632Z,78.22
2023-05-05T20:35:33.291Z,76.38
2023-05-05T20:38:45.660Z,76.24
2023-05-05T20:41:58.255Z,76.37
2023-05-05T20:45:11.306Z,78.58
2023-05-05T20:48:23.974Z,79.06
2023-05-05T20:51:36.373Z,80.16
2023-05-05T20:54:49.014Z,80.87
2023-05-05T20:58:01.516Z,81.95
2023-05-05T21:01:14.220Z,81.97
2023-05-05T21:04:26.669Z,80.65
2023-05-05T21:07:39.311Z,81.73
2023-05-05T21:10:51.685Z,82.25
2023-05-05T21:14:04.942Z,82.67
2023-05-05T21:17:17.294Z,84.60
2023-05-05T21:20:29.911Z,85.16
2023-05-05T21:23:42.284Z,83.76
2023-05-05T21:26:56.378Z,84.03
2023-05-05T21:30:11.015Z,84.50
2023-05-05T21:33:24.028Z,85.18
2023-05-05T21:36:37.173Z,84.81
2023-05-05T21:39:49.840Z,85.84
2023-05-05T21:43:02.197Z,86.13
2023-05-05T21:46:17.205Z,85.64
2023-05-05T21:49:29.657Z,86.67
2023-05-05T21:52:42.298Z,88.37
2023-05-05T21:55:55.243Z,89.13
2023-05-05T21:59:07.841Z,88.70
2023-05-05T22:02:20.245Z,88.30
2023-05-05T22:05:32.969Z,89.21
2023-05-05T22:08:45.317Z,89.51
2023-05-05T22:11:58.017Z,89.33
2023-05-05T22:15:10.975Z,90.83
2023-05-05T22:18:23.902Z,89.15
2023-05-05T22:21:36.271Z,90.36
2023-05-05T22:24:49.035Z,90.68
2023-05-05T22:28:01.455Z,89.90
2023-05-05T22:31:14.150Z,89.90
2023-05-05T22:34:26.546Z,90.27
2023-05-05T22:37:39.173Z,90.82
2023-05-05T22:40:51.483Z,91.08
2023-05-05T22:44:04.160Z,89.57
2023-05-05T22:47:16.627Z,90.49
2023-05-05T22:50:29.312Z,90.99
2023-05-05T22:53:41.735Z,91.40
2023-05-05T22:56:54.411Z,91.36
2023-05-05T23:00:08.559Z,90.52
2023-05-05T23:03:21.170Z,90.13
2023-05-05T23:06:33.548Z,89.08
2023-05-05T23:09:46.865Z,89.56
2023-05-05T23:12:59.260Z,89.78
2023-05-05T23:16:11.913Z,89.65
2023-05-05T23:19:24.368Z,90.87
2023-05-05T23:22:37.259Z,90.99
2023-05-05T23:25:49.680Z,91.21
2023-05-05T23:29:02.369Z,92.02
2023-05-05T23:32:14.751Z,91.36
2023-05-05T23:35:28.040Z,93.39
2023-05-05T23:38:40.432Z,93.57
2023-05-05T23:41:53.044Z,93.97
2023-05-05T23:45:05.808Z,95.25
2023-05-05T23:48:18.480Z,95.32
2023-05-05T23:51:31.077Z,95.35
2023-05-05T23:54:44.722Z,95.89
2023-05-05T23:57:57.086Z,95.90
